Time;durP1;ratioP1;P1;durP2;ratioP2;P2;SDS_P1;SDS_P2;PMS_P1;PMS_P2;Temp;Humidity;BMP_temperature;BMP_pressure;BME280_temperature;BME280_humidity;BME280_pressure;Samples;Min_cycle;Max_cycle;Signal;HPM_P1;HPM_P2
2021/03/09 00:01:03;;;;;;;13.25;3.60;;;-4.10;93.10;;;;;;5094738;28;20207;-77
2021/03/09 00:03:29;;;;;;;8.80;3.40;;;-4.00;93.20;;;;;;5094153;28;20213;-78
2021/03/09 00:05:56;;;;;;;11.18;3.50;;;-4.00;93.00;;;;;;5095027;28;20525;-78
2021/03/09 00:08:22;;;;;;;13.90;3.42;;;-4.10;93.00;;;;;;5093417;28;21801;-76
2021/03/09 00:10:48;;;;;;;14.45;3.33;;;-4.20;93.20;;;;;;5093638;28;20177;-77
2021/03/09 00:13:14;;;;;;;5.45;2.72;;;-4.30;93.30;;;;;;5092647;28;20184;-79
2021/03/09 00:15:40;;;;;;;19.33;3.10;;;-4.30;93.40;;;;;;5092665;28;20177;-79
2021/03/09 00:18:10;;;;;;;10.32;3.40;;;-4.20;94.10;;;;;;5092924;28;20197;-78
2021/03/09 00:20:36;;;;;;;13.27;3.92;;;-4.10;93.90;;;;;;5093452;28;20536;-77
2021/03/09 00:23:04;;;;;;;8.45;3.20;;;-4.20;93.70;;;;;;5094189;28;20684;-78
2021/03/09 00:25:31;;;;;;;21.75;3.70;;;-4.30;93.90;;;;;;5093673;28;20656;-77
2021/03/09 00:27:57;;;;;;;15.00;3.67;;;-4.20;93.80;;;;;;5094907;28;20177;-77
2021/03/09 00:30:23;;;;;;;10.13;3.83;;;-4.10;93.90;;;;;;5093561;28;20213;-78
2021/03/09 00:32:50;;;;;;;13.10;3.80;;;-4.20;93.70;;;;;;5093415;28;20193;-78
2021/03/09 00:35:16;;;;;;;15.60;4.35;;;-4.30;93.70;;;;;;5093009;28;20177;-78
2021/03/09 00:37:42;;;;;;;16.08;4.05;;;-4.20;94.10;;;;;;5093906;28;20170;-77
2021/03/09 00:40:09;;;;;;;12.75;4.30;;;-4.30;94.00;;;;;;5094145;28;20193;-78
2021/03/09 00:42:35;;;;;;;13.70;4.70;;;-4.30;94.10;;;;;;5094016;28;20188;-79
2021/03/09 00:45:01;;;;;;;9.88;4.32;;;-4.20;94.10;;;;;;5093644;28;20193;-79
2021/03/09 00:47:27;;;;;;;11.82;3.72;;;-4.10;94.10;;;;;;5093736;28;20177;-78
2021/03/09 00:49:54;;;;;;;13.95;3.97;;;-4.20;94.00;;;;;;5092476;28;20173;-78
2021/03/09 00:52:21;;;;;;;8.43;3.47;;;-4.20;94.10;;;;;;5093500;28;20540;-77
2021/03/09 00:54:47;;;;;;;13.80;3.97;;;-4.20;94.40;;;;;;5093379;28;20178;-78
2021/03/09 00:57:13;;;;;;;9.07;3.97;;;-4.20;94.50;;;;;;5093645;28;20188;-77
2021/03/09 00:59:39;;;;;;;13.23;3.60;;;-4.30;94.50;;;;;;5093429;28;20176;-78
2021/03/09 01:02:05;;;;;;;15.27;4.15;;;-4.40;94.50;;;;;;5093754;28;20632;-78
2021/03/09 01:04:31;;;;;;;8.55;3.90;;;-4.40;94.70;;;;;;5093546;28;20204;-78
2021/03/09 01:06:57;;;;;;;13.95;4.18;;;-4.30;94.80;;;;;;5093249;28;20190;-78
2021/03/09 01:09:24;;;;;;;12.85;4.28;;;-4.40;95.00;;;;;;5093529;28;20181;-77
2021/03/09 01:11:50;;;;;;;11.55;4.28;;;-4.30;95.00;;;;;;5093227;28;20171;-78
2021/03/09 01:14:16;;;;;;;17.95;4.30;;;-4.30;94.60;;;;;;5093516;28;20170;-77
2021/03/09 01:16:42;;;;;;;11.95;4.13;;;-4.30;94.90;;;;;;5093062;28;20209;-77
2021/03/09 01:19:08;;;;;;;9.65;4.25;;;-4.20;95.00;;;;;;5093598;28;20170;-77
2021/03/09 01:21:34;;;;;;;13.38;4.20;;;-4.30;94.80;;;;;;5090167;28;20547;-78
2021/03/09 01:24:00;;;;;;;18.98;4.47;;;-4.30;95.20;;;;;;5092312;28;20918;-76
2021/03/09 01:26:29;;;;;;;11.15;4.50;;;-4.30;95.10;;;;;;5093268;28;20178;-77
2021/03/09 01:28:55;;;;;;;11.60;4.05;;;-4.20;95.10;;;;;;5093641;28;20184;-77
2021/03/09 01:31:21;;;;;;;12.20;4.75;;;-4.10;94.80;;;;;;5092656;28;20727;-77
2021/03/09 01:33:47;;;;;;;21.73;4.95;;;-4.20;94.80;;;;;;5093072;28;20621;-78
2021/03/09 01:36:13;;;;;;;13.60;4.63;;;-4.20;94.70;;;;;;5092445;28;20180;-77
2021/03/09 01:38:40;;;;;;;11.25;4.47;;;-4.20;94.70;;;;;;5092144;28;20181;-77
2021/03/09 01:41:06;;;;;;;15.98;5.63;;;-4.20;94.90;;;;;;5092594;28;20170;-76
2021/03/09 01:43:32;;;;;;;17.30;5.35;;;-4.20;95.00;;;;;;5092747;28;20193;-79
2021/03/09 01:45:59;;;;;;;17.65;5.05;;;-4.20;95.10;;;;;;5092908;28;20683;-78
2021/03/09 01:48:28;;;;;;;20.85;5.60;;;-4.20;95.20;;;;;;5092151;28;20193;-77
2021/03/09 01:50:55;;;;;;;17.02;5.07;;;-4.20;95.40;;;;;;5090204;28;20173;-78
2021/03/09 01:53:21;;;;;;;15.07;5.00;;;-4.30;95.10;;;;;;5056927;28;20193;-77
2021/03/09 01:55:47;;;;;;;11.43;4.65;;;-4.20;95.40;;;;;;5074305;28;20189;-77
2021/03/09 01:58:13;;;;;;;16.40;5.25;;;-4.20;95.20;;;;;;5074777;28;20641;-76
2021/03/09 02:00:39;;;;;;;20.05;5.50;;;-4.20;95.10;;;;;;5092137;28;20679;-78
2021/03/09 02:03:05;;;;;;;13.50;4.47;;;-4.20;95.20;;;;;;5074106;28;20216;-77
2021/03/09 02:05:32;;;;;;;19.73;5.15;;;-4.00;95.30;;;;;;5092381;28;20185;-77
2021/03/09 02:07:58;;;;;;;15.65;5.47;;;-4.10;94.90;;;;;;5092087;28;20633;-77
2021/03/09 02:10:24;;;;;;;11.38;5.13;;;-4.10;94.90;;;;;;5074164;28;20169;-78
2021/03/09 02:13:17;;;;;;;12.93;5.32;;;-4.10;94.80;;;;;;5073989;28;20173;-76
2021/03/09 02:15:55;;;;;;;17.90;4.75;;;-4.00;94.90;;;;;;5081980;28;20197;-77
2021/03/09 02:18:30;;;;;;;24.65;5.53;;;-4.00;94.80;;;;;;5074490;28;20164;-77
2021/03/09 02:21:30;;;;;;;16.85;5.38;;;-4.00;94.80;;;;;;5074248;28;20180;-78
2021/03/09 02:24:02;;;;;;;17.38;4.65;;;-4.00;95.00;;;;;;5091799;28;20205;-77
2021/03/09 02:26:56;;;;;;;9.75;3.42;;;-4.10;95.10;;;;;;5087048;28;20169;-76
2021/03/09 02:29:34;;;;;;;12.07;4.47;;;-4.10;95.20;;;;;;5086260;28;20648;-78
2021/03/09 02:32:00;;;;;;;11.40;5.18;;;-4.00;95.30;;;;;;5091616;28;20620;-78
2021/03/09 02:34:31;;;;;;;11.88;4.93;;;-4.00;95.10;;;;;;5073731;28;20169;-77
2021/03/09 02:36:58;;;;;;;10.05;4.03;;;-4.00;95.10;;;;;;5056781;28;20633;-78
2021/03/09 02:39:24;;;;;;;13.05;4.50;;;-4.10;95.00;;;;;;5057199;28;20165;-79
2021/03/09 02:41:50;;;;;;;10.95;4.50;;;-4.10;95.10;;;;;;5074037;28;20633;-77
2021/03/09 02:44:19;;;;;;;17.55;4.03;;;-4.10;95.20;;;;;;5073891;28;20220;-77
2021/03/09 02:46:48;;;;;;;16.45;4.53;;;-4.10;95.30;;;;;;5091584;28;20254;-77
2021/03/09 02:49:14;;;;;;;15.55;4.25;;;-4.10;95.20;;;;;;5091681;28;20184;-77
2021/03/09 02:51:42;;;;;;;7.72;3.85;;;-4.10;95.30;;;;;;5073339;28;20177;-78
2021/03/09 02:54:09;;;;;;;12.18;4.53;;;-4.00;95.30;;;;;;5073077;28;20552;-77
2021/03/09 02:56:38;;;;;;;11.30;4.63;;;-4.00;95.10;;;;;;5073045;28;20178;-78
2021/03/09 02:59:10;;;;;;;15.27;4.53;;;-4.00;95.10;;;;;;5074009;28;20684;-78
2021/03/09 03:01:37;;;;;;;10.93;4.15;;;-4.00;95.10;;;;;;5072017;28;20161;-78
2021/03/09 03:04:06;;;;;;;10.73;4.15;;;-4.00;95.20;;;;;;5071178;28;20201;-77
2021/03/09 03:06:32;;;;;;;11.70;4.45;;;-4.00;95.20;;;;;;5072642;28;20174;-77
2021/03/09 03:08:59;;;;;;;8.13;3.83;;;-4.00;95.40;;;;;;5073116;28;20539;-78
2021/03/09 03:11:25;;;;;;;9.90;4.07;;;-4.00;95.30;;;;;;5073650;28;20176;-79
2021/03/09 03:13:52;;;;;;;11.55;3.80;;;-3.90;95.40;;;;;;5075440;28;20176;-78
2021/03/09 03:16:19;;;;;;;9.93;3.90;;;-4.00;95.40;;;;;;5077718;28;20169;-77
2021/03/09 03:18:45;;;;;;;15.52;4.25;;;-4.10;95.30;;;;;;5060390;28;20173;-77
2021/03/09 03:21:12;;;;;;;8.68;3.85;;;-4.10;95.40;;;;;;5094694;28;20238;-77
2021/03/09 03:23:39;;;;;;;7.95;3.03;;;-4.10;95.40;;;;;;5077281;28;20204;-77
2021/03/09 03:26:06;;;;;;;7.55;2.92;;;-4.10;95.60;;;;;;5077473;28;20525;-77
2021/03/09 03:28:34;;;;;;;9.45;3.97;;;-4.10;95.70;;;;;;5060858;28;20181;-77
2021/03/09 03:31:01;;;;;;;7.57;3.00;;;-4.10;96.00;;;;;;5074070;28;20568;-77
2021/03/09 03:33:28;;;;;;;8.80;2.83;;;-4.00;96.10;;;;;;5054751;28;20197;-79
2021/03/09 03:35:54;;;;;;;6.78;2.60;;;-3.90;96.50;;;;;;5057021;28;20166;-79
2021/03/09 03:38:21;;;;;;;6.43;2.58;;;-3.80;96.70;;;;;;5074151;28;20182;-78
2021/03/09 03:40:47;;;;;;;8.40;2.65;;;-3.90;96.40;;;;;;5074664;28;20174;-78
2021/03/09 03:43:13;;;;;;;8.20;3.75;;;-3.90;96.50;;;;;;5075052;28;20538;-77
2021/03/09 03:45:39;;;;;;;8.82;2.85;;;-4.00;96.40;;;;;;5072390;28;20662;-77
2021/03/09 03:48:06;;;;;;;8.25;3.70;;;-4.00;96.30;;;;;;5073567;28;20186;-77
2021/03/09 03:50:32;;;;;;;8.60;3.53;;;-4.00;96.40;;;;;;5072654;28;20989;-78
2021/03/09 03:53:09;;;;;;;10.88;3.63;;;-4.00;96.30;;;;;;5071223;28;20538;-78
2021/03/09 03:55:36;;;;;;;8.18;3.88;;;-4.00;96.30;;;;;;5071870;28;20161;-79
2021/03/09 03:58:37;;;;;;;12.13;4.13;;;-4.10;96.40;;;;;;5073393;28;20645;-79
2021/03/09 04:01:03;;;;;;;9.55;3.20;;;-4.20;96.30;;;;;;5021268;28;20200;-79
2021/03/09 04:03:30;;;;;;;7.57;3.15;;;-4.20;96.50;;;;;;5054638;28;20547;-78
2021/03/09 04:05:56;;;;;;;16.20;3.22;;;-4.10;96.70;;;;;;5055217;28;20174;-77
2021/03/09 04:08:22;;;;;;;9.48;3.70;;;-4.10;97.00;;;;;;5071538;28;20513;-77
2021/03/09 04:10:49;;;;;;;7.85;3.20;;;-4.10;96.70;;;;;;5071167;28;20665;-78
2021/03/09 04:13:16;;;;;;;9.77;3.70;;;-4.10;96.60;;;;;;5055012;28;20170;-78
2021/03/09 04:15:42;;;;;;;8.00;3.58;;;-4.20;96.60;;;;;;5054699;28;20177;-79
2021/03/09 04:18:08;;;;;;;11.02;4.47;;;-4.10;96.60;;;;;;5071536;28;20170;-78
2021/03/09 04:20:35;;;;;;;10.02;3.78;;;-4.10;96.50;;;;;;5054090;28;20197;-78
2021/03/09 04:23:03;;;;;;;8.90;4.00;;;-4.10;96.70;;;;;;5055064;28;20166;-77
2021/03/09 04:25:30;;;;;;;8.70;3.38;;;-4.10;96.70;;;;;;5072137;28;20534;-78
2021/03/09 04:27:56;;;;;;;11.13;3.15;;;-4.10;96.80;;;;;;5054764;28;20504;-78
2021/03/09 04:30:22;;;;;;;8.10;2.90;;;-4.10;96.70;;;;;;5082048;28;20232;-78
2021/03/09 04:32:48;;;;;;;15.15;4.07;;;-4.20;96.90;;;;;;5055179;28;20181;-77
2021/03/09 04:35:15;;;;;;;12.13;3.17;;;-4.10;97.00;;;;;;5074731;28;20182;-79
2021/03/09 04:37:41;;;;;;;8.43;3.35;;;-4.10;97.50;;;;;;5075593;28;20169;-78
2021/03/09 04:40:08;;;;;;;10.35;3.42;;;-4.20;97.00;;;;;;5059264;28;20181;-78
2021/03/09 04:42:35;;;;;;;9.15;3.30;;;-4.10;97.10;;;;;;5074184;28;20185;-78
2021/03/09 04:45:02;;;;;;;11.98;3.65;;;-4.00;96.90;;;;;;5092233;28;20225;-78
2021/03/09 04:47:28;;;;;;;8.82;3.42;;;-4.00;96.90;;;;;;5093755;28;20174;-76
2021/03/09 04:49:55;;;;;;;7.65;3.42;;;-4.10;96.90;;;;;;5074001;28;20188;-78
2021/03/09 04:52:24;;;;;;;6.70;3.33;;;-4.10;97.00;;;;;;5091480;28;20181;-76
2021/03/09 04:54:51;;;;;;;8.40;3.33;;;-4.20;97.00;;;;;;5073520;28;20185;-78
2021/03/09 04:57:17;;;;;;;9.57;2.83;;;-4.20;97.10;;;;;;5056799;28;20169;-77
2021/03/09 04:59:43;;;;;;;6.97;3.20;;;-4.20;97.30;;;;;;5093891;28;20181;-77
2021/03/09 05:02:10;;;;;;;10.13;3.40;;;-4.20;97.30;;;;;;5094331;28;20177;-77
2021/03/09 05:04:36;;;;;;;11.27;3.38;;;-4.20;97.40;;;;;;5094335;28;20680;-77
2021/03/09 05:07:02;;;;;;;10.20;3.53;;;-4.10;97.40;;;;;;5093436;28;20184;-77
2021/03/09 05:09:28;;;;;;;7.70;3.00;;;-4.10;97.30;;;;;;5092374;28;20561;-76
2021/03/09 05:11:54;;;;;;;11.25;3.30;;;-4.20;97.50;;;;;;5094113;28;20530;-78
2021/03/09 05:14:20;;;;;;;11.07;3.15;;;-4.20;97.50;;;;;;5093984;28;20542;-77
2021/03/09 05:16:47;;;;;;;11.40;3.13;;;-4.30;97.40;;;;;;5093516;28;20629;-76
2021/03/09 05:19:13;;;;;;;11.63;3.42;;;-4.20;97.80;;;;;;5091360;28;20173;-77
2021/03/09 05:21:39;;;;;;;10.82;3.40;;;-4.20;97.90;;;;;;5093234;28;20178;-75
2021/03/09 05:24:06;;;;;;;8.38;3.25;;;-4.10;98.40;;;;;;5093572;28;20205;-78
2021/03/09 05:26:32;;;;;;;11.63;3.75;;;-4.10;98.30;;;;;;5093880;28;20165;-77
2021/03/09 05:28:59;;;;;;;12.63;3.30;;;-4.00;98.60;;;;;;5093085;28;20184;-76
2021/03/09 05:31:25;;;;;;;7.80;3.08;;;-4.10;98.50;;;;;;5093656;28;20197;-76
2021/03/09 05:33:51;;;;;;;11.63;4.10;;;-4.10;98.60;;;;;;5093096;28;20192;-77
2021/03/09 05:36:17;;;;;;;9.52;4.07;;;-4.10;98.50;;;;;;5092806;28;20180;-78
2021/03/09 05:38:43;;;;;;;10.48;3.50;;;-4.10;98.80;;;;;;5097851;28;20177;-77
2021/03/09 05:41:09;;;;;;;7.82;3.42;;;-3.90;99.30;;;;;;5073675;28;20193;-76
2021/03/09 05:43:36;;;;;;;9.35;4.22;;;-3.90;99.10;;;;;;5055999;28;20181;-78
2021/03/09 05:46:02;;;;;;;9.80;4.07;;;-3.80;99.40;;;;;;5055762;28;20202;-76
2021/03/09 05:48:28;;;;;;;15.18;4.07;;;-3.70;99.60;;;;;;5056067;28;20181;-77
2021/03/09 05:50:54;;;;;;;14.15;4.18;;;-3.80;99.20;;;;;;5109598;28;20180;-78
2021/03/09 05:53:21;;;;;;;19.13;4.22;;;-3.90;99.10;;;;;;5103634;28;20172;-76
2021/03/09 05:55:48;;;;;;;10.90;4.30;;;-3.60;99.40;;;;;;5113716;28;20169;-76
2021/03/09 05:58:15;;;;;;;10.57;4.43;;;-3.50;99.20;;;;;;5071249;28;20280;-76
2021/03/09 06:00:41;;;;;;;10.93;4.72;;;-3.50;98.80;;;;;;5055633;28;20174;-76
2021/03/09 06:03:07;;;;;;;11.45;4.28;;;-3.40;98.90;;;;;;5055045;28;20550;-76
2021/03/09 06:05:34;;;;;;;15.13;4.20;;;-3.50;99.00;;;;;;5055389;28;20208;-76
2021/03/09 06:08:00;;;;;;;14.10;4.55;;;-3.60;99.10;;;;;;5081177;28;20169;-76
2021/03/09 06:10:26;;;;;;;11.27;4.70;;;-3.60;99.20;;;;;;5093282;28;20178;-77
2021/03/09 06:12:52;;;;;;;12.52;4.10;;;-3.70;99.20;;;;;;5092751;28;20170;-77
2021/03/09 06:15:19;;;;;;;19.80;4.57;;;-3.70;99.30;;;;;;5092340;28;20181;-77
2021/03/09 06:17:55;;;;;;;17.67;4.60;;;-3.70;99.40;;;;;;5074738;28;20176;-77
2021/03/09 06:20:23;;;;;;;12.90;4.07;;;-3.70;99.50;;;;;;5092501;28;20184;-77
2021/03/09 06:22:59;;;;;;;11.15;4.28;;;-3.60;99.70;;;;;;5074250;28;20539;-77
2021/03/09 06:25:29;;;;;;;12.23;4.65;;;-3.60;99.60;;;;;;5092979;28;20216;-78
2021/03/09 06:28:00;;;;;;;13.93;4.68;;;-3.40;99.70;;;;;;5072944;28;20173;-77
2021/03/09 06:30:37;;;;;;;9.70;4.40;;;-3.40;99.70;;;;;;5088010;28;20220;-77
2021/03/09 06:33:04;;;;;;;16.33;4.63;;;-3.30;99.70;;;;;;5093003;28;20525;-78
2021/03/09 06:35:37;;;;;;;15.43;5.00;;;-3.30;99.80;;;;;;5098319;28;20176;-77
2021/03/09 06:38:19;;;;;;;10.45;4.65;;;-3.20;99.90;;;;;;5098468;28;20185;-78
2021/03/09 06:41:04;;;;;;;10.38;4.80;;;-3.10;99.70;;;;;;5092912;28;20177;-78
2021/03/09 06:43:30;;;;;;;9.27;3.80;;;-3.00;99.80;;;;;;5092884;28;20166;-78
2021/03/09 06:46:19;;;;;;;10.27;4.03;;;-3.00;99.60;;;;;;5072276;28;20220;-77
2021/03/09 06:48:50;;;;;;;21.25;4.90;;;-2.90;99.60;;;;;;5085930;28;20174;-78
2021/03/09 06:51:33;;;;;;;17.10;7.10;;;-2.80;99.70;;;;;;5081548;28;20180;-78
2021/03/09 06:54:03;;;;;;;21.52;7.55;;;-2.70;99.70;;;;;;5091291;28;20529;-77
2021/03/09 06:56:29;;;;;;;16.27;6.53;;;-2.60;99.60;;;;;;5090891;28;20189;-78
2021/03/09 06:58:55;;;;;;;8.48;3.80;;;-2.60;99.50;;;;;;5088027;28;20508;-79
2021/03/09 07:01:21;;;;;;;13.77;5.28;;;-2.50;99.40;;;;;;5091415;28;20200;-79
2021/03/09 07:03:47;;;;;;;14.55;4.30;;;-2.40;99.20;;;;;;5091821;28;20174;-79
2021/03/09 07:06:14;;;;;;;12.93;3.30;;;-2.20;99.40;;;;;;5074292;28;20527;-80
2021/03/09 07:08:40;;;;;;;8.50;3.97;;;-2.10;99.20;;;;;;5093091;28;20173;-77
2021/03/09 07:11:06;;;;;;;17.00;3.42;;;-1.70;98.40;;;;;;5090923;28;20177;-78
2021/03/09 07:13:33;;;;;;;7.40;3.00;;;-1.30;97.50;;;;;;5073276;28;20657;-78
2021/03/09 07:15:59;;;;;;;9.20;2.83;;;-1.10;96.50;;;;;;5057072;28;20651;-77
2021/03/09 07:18:26;;;;;;;9.25;2.72;;;-0.90;95.60;;;;;;5073242;28;20532;-78
2021/03/09 07:20:54;;;;;;;6.55;2.95;;;-0.60;94.80;;;;;;5072264;28;20645;-78
2021/03/09 07:23:21;;;;;;;4.68;2.17;;;-0.60;94.40;;;;;;5090817;28;20181;-78
2021/03/09 07:25:53;;;;;;;4.75;1.77;;;-0.50;94.30;;;;;;5073298;28;20208;-77
2021/03/09 07:28:21;;;;;;;11.73;2.78;;;-0.30;93.80;;;;;;5090872;28;20185;-78
2021/03/09 07:30:49;;;;;;;9.95;2.13;;;-0.40;94.10;;;;;;5056122;28;20295;-77
2021/03/09 07:33:16;;;;;;;8.43;2.63;;;-0.40;94.10;;;;;;5090945;28;20173;-77
2021/03/09 07:35:42;;;;;;;20.80;3.78;;;-0.40;94.40;;;;;;5056509;28;20189;-76
2021/03/09 07:38:08;;;;;;;10.45;3.13;;;-0.30;94.50;;;;;;5073262;28;20180;-76
2021/03/09 07:40:35;;;;;;;12.88;2.47;;;0.10;93.20;;;;;;5072216;28;20177;-77
2021/03/09 07:43:01;;;;;;;8.18;2.10;;;0.30;93.50;;;;;;5072671;28;20173;-76
2021/03/09 07:45:31;;;;;;;8.73;1.85;;;0.80;92.20;;;;;;5090902;28;20213;-76
2021/03/09 07:48:04;;;;;;;7.57;2.15;;;1.20;91.30;;;;;;5091605;28;20541;-76
2021/03/09 07:50:44;;;;;;;9.23;1.80;;;1.30;90.60;;;;;;5071602;28;20549;-77
2021/03/09 07:53:14;;;;;;;3.53;1.63;;;1.50;89.50;;;;;;5071003;28;20157;-74
2021/03/09 07:55:41;;;;;;;11.40;2.45;;;1.80;88.30;;;;;;5072658;28;20200;-76
2021/03/09 07:58:22;;;;;;;19.45;2.63;;;1.80;88.80;;;;;;5090258;28;20174;-76
2021/03/09 08:01:05;;;;;;;5.07;2.08;;;1.70;89.50;;;;;;5093239;28;20165;-74
2021/03/09 08:03:42;;;;;;;8.68;2.50;;;1.70;88.80;;;;;;5092968;28;20165;-75
2021/03/09 08:06:09;;;;;;;9.38;2.17;;;1.70;88.20;;;;;;5093755;28;20212;-75
2021/03/09 08:08:52;;;;;;;15.40;2.50;;;1.80;87.20;;;;;;5094682;28;20196;-76
2021/03/09 08:11:24;;;;;;;10.60;2.05;;;2.10;87.50;;;;;;5094646;28;20172;-75
2021/03/09 08:14:08;;;;;;;5.32;1.67;;;2.20;86.20;;;;;;5092765;28;20164;-76
2021/03/09 08:16:42;;;;;;;5.32;1.50;;;2.30;85.80;;;;;;5095139;28;20177;-76
2021/03/09 08:19:11;;;;;;;5.32;1.50;;;2.50;86.00;;;;;;5076612;28;20185;-76
2021/03/09 08:21:46;;;;;;;9.90;1.70;;;2.60;85.30;;;;;;5095460;28;20548;-76
2021/03/09 08:24:12;;;;;;;4.35;1.80;;;2.80;83.30;;;;;;5087239;28;20180;-76
2021/03/09 08:26:38;;;;;;;6.30;1.90;;;3.40;82.20;;;;;;5095512;28;20192;-75
2021/03/09 08:29:29;;;;;;;6.15;1.77;;;4.00;83.10;;;;;;5094325;28;20185;-76
2021/03/09 08:32:23;;;;;;;10.10;1.90;;;5.00;75.80;;;;;;5095245;28;20529;-76
2021/03/09 08:35:11;;;;;;;11.00;1.95;;;5.40;73.70;;;;;;5094677;28;20165;-77
2021/03/09 08:37:38;;;;;;;7.15;1.75;;;5.30;72.00;;;;;;5094912;28;20165;-76
2021/03/09 08:40:09;;;;;;;8.20;2.60;;;5.40;71.80;;;;;;5094780;28;20170;-77
2021/03/09 08:43:00;;;;;;;8.48;2.42;;;5.00;73.20;;;;;;5094771;28;20166;-76
2021/03/09 08:45:36;;;;;;;6.57;2.38;;;4.80;72.40;;;;;;5093092;28;20208;-78
2021/03/09 08:48:03;;;;;;;6.85;2.00;;;5.70;71.50;;;;;;5093017;28;20549;-78
2021/03/09 08:50:39;;;;;;;8.05;2.03;;;5.50;70.90;;;;;;5074290;28;20568;-75
2021/03/09 08:53:05;;;;;;;6.25;2.17;;;5.30;72.60;;;;;;5093183;28;20169;-74
2021/03/09 08:55:31;;;;;;;6.70;2.60;;;5.10;72.10;;;;;;5093363;28;20188;-75
2021/03/09 08:58:05;;;;;;;6.47;2.05;;;4.90;73.70;;;;;;5094123;28;20177;-75
2021/03/09 09:00:31;;;;;;;8.00;2.17;;;4.60;75.10;;;;;;5072081;28;20185;-75
2021/03/09 09:02:57;;;;;;;9.77;2.17;;;4.30;76.80;;;;;;5093543;28;20184;-75
2021/03/09 09:05:29;;;;;;;6.82;2.70;;;4.30;76.60;;;;;;5076189;28;20212;-77
2021/03/09 09:07:55;;;;;;;11.13;2.22;;;4.40;77.50;;;;;;5093537;28;20162;-76
2021/03/09 09:10:27;;;;;;;7.90;2.47;;;4.70;75.80;;;;;;5093453;28;20193;-74
2021/03/09 09:12:56;;;;;;;6.25;2.20;;;4.50;76.40;;;;;;5094094;28;20173;-76
2021/03/09 09:15:26;;;;;;;7.70;2.40;;;4.50;76.50;;;;;;5082148;28;20197;-76
2021/03/09 09:17:54;;;;;;;6.95;2.47;;;4.40;77.40;;;;;;5093181;28;20185;-76
2021/03/09 09:20:30;;;;;;;10.82;2.53;;;4.60;77.60;;;;;;5093736;28;20165;-75
2021/03/09 09:23:26;;;;;;;9.77;2.55;;;4.90;76.20;;;;;;5093226;28;20204;-76
2021/03/09 09:25:53;;;;;;;10.70;2.80;;;5.30;74.40;;;;;;5089074;28;20224;-75
2021/03/09 09:28:24;;;;;;;6.18;2.85;;;5.20;74.40;;;;;;5093576;28;20656;-77
2021/03/09 09:30:50;;;;;;;10.88;2.92;;;4.70;75.20;;;;;;5093033;28;20225;-74
2021/03/09 09:33:16;;;;;;;11.77;4.22;;;4.50;77.90;;;;;;5093683;28;20192;-73
2021/03/09 09:35:42;;;;;;;21.77;3.47;;;4.70;78.00;;;;;;5093152;28;20239;-75
2021/03/09 09:38:16;;;;;;;12.88;3.20;;;4.90;77.40;;;;;;5092262;28;20169;-75
2021/03/09 09:40:56;;;;;;;10.15;3.28;;;5.30;75.80;;;;;;5093701;28;20184;-77
2021/03/09 09:43:26;;;;;;;8.05;3.22;;;5.10;74.90;;;;;;5092967;28;20165;-77
2021/03/09 09:45:56;;;;;;;7.97;3.40;;;4.90;76.50;;;;;;5092887;28;20322;-75
2021/03/09 09:48:27;;;;;;;11.45;3.65;;;4.90;76.30;;;;;;5074486;28;20191;-77
2021/03/09 09:50:55;;;;;;;11.20;3.55;;;4.80;77.10;;;;;;5092433;28;20189;-76
2021/03/09 09:53:36;;;;;;;11.15;3.90;;;4.60;78.20;;;;;;5092502;28;20204;-77
2021/03/09 09:56:13;;;;;;;16.73;3.20;;;4.20;80.20;;;;;;5093110;28;20261;-75
2021/03/09 09:58:50;;;;;;;5.25;2.60;;;5.20;78.40;;;;;;5084662;28;20184;-77
2021/03/09 10:01:39;;;;;;;6.65;3.00;;;5.50;76.60;;;;;;5092134;28;20184;-74
2021/03/09 10:04:07;;;;;;;6.18;3.08;;;5.20;76.30;;;;;;5092800;28;20603;-75
2021/03/09 10:06:41;;;;;;;9.88;3.40;;;4.90;77.70;;;;;;5074087;28;20653;-74
2021/03/09 10:09:16;;;;;;;8.35;3.25;;;5.00;77.80;;;;;;5092769;28;20530;-75
2021/03/09 10:11:55;;;;;;;9.90;3.40;;;5.20;76.50;;;;;;5092899;28;20164;-75
2021/03/09 10:14:28;;;;;;;12.93;3.17;;;6.00;74.60;;;;;;5092178;28;20177;-75
2021/03/09 10:16:55;;;;;;;8.55;3.17;;;6.40;73.50;;;;;;5074234;28;20158;-73
2021/03/09 10:19:22;;;;;;;7.53;3.03;;;6.40;72.70;;;;;;5074420;28;20192;-73
2021/03/09 10:21:49;;;;;;;12.52;3.13;;;6.00;74.60;;;;;;5091638;28;20529;-74
2021/03/09 10:24:22;;;;;;;7.38;2.65;;;5.70;74.00;;;;;;5092445;28;20184;-75
2021/03/09 10:26:49;;;;;;;14.70;3.78;;;5.30;75.60;;;;;;5092386;28;20564;-78
2021/03/09 10:29:16;;;;;;;10.07;2.92;;;5.30;75.40;;;;;;5080071;28;20181;-74
2021/03/09 10:31:55;;;;;;;8.60;2.58;;;5.10;76.80;;;;;;5091822;28;20216;-74
2021/03/09 10:34:54;;;;;;;6.07;2.88;;;4.70;77.40;;;;;;5089516;28;20161;-76
2021/03/09 10:37:36;;;;;;;11.48;2.67;;;5.10;78.40;;;;;;5087663;28;20176;-77
2021/03/09 10:40:06;;;;;;;8.60;2.72;;;5.10;77.00;;;;;;5057415;28;20188;-73
2021/03/09 10:42:39;;;;;;;6.13;2.70;;;4.90;77.20;;;;;;5091240;28;20184;-75
2021/03/09 10:45:20;;;;;;;24.60;3.15;;;4.90;76.70;;;;;;5092042;28;20223;-73
2021/03/09 10:47:59;;;;;;;26.77;3.50;;;4.80;77.70;;;;;;5091942;28;20180;-75
2021/03/09 10:50:27;;;;;;;16.20;2.97;;;4.50;76.70;;;;;;5092177;28;20161;-75
2021/03/09 10:52:53;;;;;;;9.60;2.80;;;4.40;77.00;;;;;;5090630;28;20200;-77
2021/03/09 10:55:20;;;;;;;16.20;3.08;;;4.30;76.20;;;;;;5091622;28;20645;-76
2021/03/09 10:57:46;;;;;;;9.75;2.63;;;4.20;77.20;;;;;;5092002;28;20173;-74
2021/03/09 11:00:16;;;;;;;10.75;2.70;;;4.20;77.40;;;;;;5091869;28;20184;-76
2021/03/09 11:02:42;;;;;;;11.65;3.00;;;4.20;77.40;;;;;;5090968;28;20161;-75
2021/03/09 11:05:09;;;;;;;8.25;2.78;;;4.30;77.10;;;;;;5091757;28;20235;-74
2021/03/09 11:07:35;;;;;;;12.98;2.95;;;4.40;76.50;;;;;;5072508;28;20185;-76
2021/03/09 11:10:02;;;;;;;8.50;2.60;;;4.50;76.90;;;;;;5091769;28;20181;-75
2021/03/09 11:12:28;;;;;;;12.07;2.22;;;4.60;75.90;;;;;;5073125;28;20166;-73
2021/03/09 11:14:55;;;;;;;12.27;2.85;;;4.60;75.80;;;;;;5091718;28;20184;-74
2021/03/09 11:17:21;;;;;;;8.63;2.47;;;4.70;76.10;;;;;;5091724;28;20177;-76
2021/03/09 11:19:47;;;;;;;13.82;3.50;;;4.60;75.40;;;;;;5091170;28;20186;-76
2021/03/09 11:22:13;;;;;;;13.35;3.38;;;4.60;76.10;;;;;;5091771;28;20530;-74
2021/03/09 11:24:39;;;;;;;22.85;2.78;;;4.50;76.80;;;;;;5090564;28;20643;-74
2021/03/09 11:27:06;;;;;;;8.43;2.67;;;4.50;76.70;;;;;;5091886;28;20185;-72
2021/03/09 11:29:33;;;;;;;7.30;3.03;;;4.50;75.90;;;;;;5091170;28;20231;-74
2021/03/09 11:31:59;;;;;;;5.75;2.35;;;4.70;76.50;;;;;;5090964;28;20240;-74
2021/03/09 11:34:25;;;;;;;6.72;2.45;;;4.70;75.40;;;;;;5091289;28;20184;-75
2021/03/09 11:36:52;;;;;;;8.75;2.58;;;4.70;75.70;;;;;;5094653;28;20177;-74
2021/03/09 11:39:18;;;;;;;8.73;3.03;;;5.00;74.80;;;;;;5095354;28;20561;-73
2021/03/09 11:41:44;;;;;;;9.75;3.08;;;5.00;74.60;;;;;;5093914;28;20165;-74
2021/03/09 11:44:10;;;;;;;10.23;2.60;;;5.20;74.80;;;;;;5077742;28;20188;-75
2021/03/09 11:46:37;;;;;;;9.02;3.08;;;5.50;75.40;;;;;;5095382;28;20205;-77
2021/03/09 11:49:04;;;;;;;12.43;2.95;;;5.70;72.50;;;;;;5094996;28;20169;-77
2021/03/09 11:51:30;;;;;;;8.88;2.67;;;5.90;72.20;;;;;;5076608;28;20172;-77
2021/03/09 11:53:56;;;;;;;9.38;2.95;;;6.40;71.10;;;;;;5095019;28;20186;-82
2021/03/09 11:56:23;;;;;;;11.15;3.00;;;6.60;69.30;;;;;;5076851;28;20181;-75
2021/03/09 11:58:49;;;;;;;17.95;3.20;;;6.20;71.80;;;;;;5094650;28;20188;-76
2021/03/09 12:01:15;;;;;;;10.60;2.60;;;6.10;71.00;;;;;;5076695;28;20184;-80
2021/03/09 12:03:41;;;;;;;5.35;2.78;;;5.40;73.50;;;;;;5095007;28;20169;-72
2021/03/09 12:06:07;;;;;;;8.57;3.10;;;5.10;74.80;;;;;;5095178;28;20208;-74
2021/03/09 12:08:34;;;;;;;13.48;2.90;;;5.40;73.80;;;;;;5094831;28;20613;-77
2021/03/09 12:11:00;;;;;;;10.00;3.22;;;4.80;76.10;;;;;;5094726;28;20181;-74
2021/03/09 12:13:26;;;;;;;12.88;2.70;;;5.00;76.40;;;;;;5094564;28;20192;-74
2021/03/09 12:15:52;;;;;;;8.75;2.50;;;5.10;75.60;;;;;;5094799;28;20181;-78
2021/03/09 12:18:18;;;;;;;10.25;2.75;;;4.50;76.90;;;;;;5095052;28;20560;-75
2021/03/09 12:20:44;;;;;;;5.60;2.80;;;4.50;77.40;;;;;;5094907;28;20177;-74
2021/03/09 12:23:12;;;;;;;11.30;3.20;;;4.40;78.10;;;;;;5100218;28;20184;-76
2021/03/09 12:25:39;;;;;;;10.18;3.00;;;4.50;78.50;;;;;;5094905;28;20213;-74
2021/03/09 12:28:06;;;;;;;8.15;3.00;;;4.50;78.90;;;;;;5095279;28;20170;-75
2021/03/09 12:30:32;;;;;;;13.93;3.22;;;4.30;79.30;;;;;;5076242;28;20684;-76
2021/03/09 12:32:58;;;;;;;11.63;3.92;;;4.30;79.50;;;;;;5094796;28;20177;-78
2021/03/09 12:35:25;;;;;;;18.20;3.05;;;4.50;79.70;;;;;;5094595;28;20170;-76
2021/03/09 12:37:51;;;;;;;9.32;3.17;;;4.70;78.80;;;;;;5093655;28;20173;-78
2021/03/09 12:40:17;;;;;;;16.48;3.03;;;4.70;78.90;;;;;;5095179;28;20174;-76
2021/03/09 12:42:43;;;;;;;13.38;3.10;;;4.80;78.30;;;;;;5094244;28;20177;-75
2021/03/09 12:45:10;;;;;;;7.63;3.38;;;4.80;78.20;;;;;;5075726;28;20566;-75
2021/03/09 12:47:36;;;;;;;7.75;3.15;;;4.80;78.80;;;;;;5093222;28;20204;-75
2021/03/09 12:50:03;;;;;;;7.13;3.20;;;4.70;78.60;;;;;;5093607;28;20173;-76
2021/03/09 12:52:29;;;;;;;10.70;3.22;;;4.60;78.70;;;;;;5087048;28;20185;-75
2021/03/09 12:54:56;;;;;;;9.50;2.97;;;4.70;78.00;;;;;;5093169;28;20184;-78